Peggy, Texas
Current Conditions -  °F | °C
As of 3:55 PM on Thursday 27 Nov 2014 (Local Time) from KPEZ Reporting Station
Clear Clear  
Wind Chill: 68°   Ceiling: Unl
Heat Index: 68°   Visibility: 10mi
Dew Point: 35°   Wind: 7mph
Humidity: 29%   Direction: 70°ENE
Pressure: 30.39"   Gusts: NA
Location:  28.74°N, 98.18°W
Report Text: KPEZ 272155Z AUTO 07006KT 10SM CLR 20/02 A3039 RMK AO2 T01990015
Loading
Personal Weather Stations






























Interactive Weather Map New forecast layout! Learn more

10-Day Weather Forecast

Advertisements
Track Severe Weather on mobile